sensor_id;sensor_type;location;lat;lon;timestamp;P1;durP1;ratioP1;P2;durP2;ratioP2
10963;SDS011;5534;48.784;9.190;2024-03-23T00:55:42;1.63;;;1.20;;
10963;SDS011;5534;48.784;9.190;2024-03-23T00:58:08;1.20;;;1.10;;
10963;SDS011;5534;48.784;9.190;2024-03-23T01:00:34;1.30;;;1.15;;
10963;SDS011;5534;48.784;9.190;2024-03-23T01:03:00;1.08;;;0.80;;
10963;SDS011;5534;48.784;9.190;2024-03-23T01:05:26;1.25;;;1.05;;
10963;SDS011;5534;48.784;9.190;2024-03-23T01:07:51;1.15;;;1.05;;
10963;SDS011;5534;48.784;9.190;2024-03-23T01:10:17;1.25;;;1.15;;
10963;SDS011;5534;48.784;9.190;2024-03-23T01:12:43;1.30;;;1.10;;
10963;SDS011;5534;48.784;9.190;2024-03-23T01:15:08;1.42;;;1.10;;
10963;SDS011;5534;48.784;9.190;2024-03-23T01:17:34;1.27;;;1.00;;
10963;SDS011;5534;48.784;9.190;2024-03-23T01:20:00;1.13;;;1.02;;
10963;SDS011;5534;48.784;9.190;2024-03-23T01:22:25;1.48;;;1.15;;
10963;SDS011;5534;48.784;9.190;2024-03-23T01:24:51;1.20;;;1.10;;
10963;SDS011;5534;48.784;9.190;2024-03-23T01:27:16;1.30;;;1.05;;
10963;SDS011;5534;48.784;9.190;2024-03-23T01:29:43;1.20;;;0.90;;
10963;SDS011;5534;48.784;9.190;2024-03-23T01:32:08;1.05;;;0.80;;
10963;SDS011;5534;48.784;9.190;2024-03-23T01:34:34;1.00;;;0.93;;
10963;SDS011;5534;48.784;9.190;2024-03-23T01:37:00;0.80;;;0.80;;
10963;SDS011;5534;48.784;9.190;2024-03-23T01:39:25;1.23;;;0.77;;
10963;SDS011;5534;48.784;9.190;2024-03-23T01:41:51;2.90;;;1.05;;
10963;SDS011;5534;48.784;9.190;2024-03-23T01:44:16;1.08;;;0.70;;
10963;SDS011;5534;48.784;9.190;2024-03-23T01:46:42;1.00;;;0.90;;
10963;SDS011;5534;48.784;9.190;2024-03-23T01:49:09;1.90;;;0.90;;
10963;SDS011;5534;48.784;9.190;2024-03-23T01:51:35;0.77;;;0.77;;
10963;SDS011;5534;48.784;9.190;2024-03-23T01:54:02;0.82;;;0.70;;
10963;SDS011;5534;48.784;9.190;2024-03-23T01:56:37;2.83;;;0.82;;
10963;SDS011;5534;48.784;9.190;2024-03-23T01:59:03;1.40;;;0.90;;
10963;SDS011;5534;48.784;9.190;2024-03-23T02:01:30;1.00;;;0.80;;
10963;SDS011;5534;48.784;9.190;2024-03-23T02:03:56;0.60;;;0.60;;
10963;SDS011;5534;48.784;9.190;2024-03-23T02:06:22;0.75;;;0.75;;
10963;SDS011;5534;48.784;9.190;2024-03-23T02:08:49;0.50;;;0.50;;
10963;SDS011;5534;48.784;9.190;2024-03-23T02:11:15;0.90;;;0.90;;
10963;SDS011;5534;48.784;9.190;2024-03-23T02:13:40;0.60;;;0.60;;
10963;SDS011;5534;48.784;9.190;2024-03-23T02:16:06;0.80;;;0.70;;
10963;SDS011;5534;48.784;9.190;2024-03-23T02:18:32;0.95;;;0.80;;
10963;SDS011;5534;48.784;9.190;2024-03-23T02:20:58;0.57;;;0.57;;
10963;SDS011;5534;48.784;9.190;2024-03-23T02:23:24;1.58;;;1.05;;
10963;SDS011;5534;48.784;9.190;2024-03-23T02:25:49;1.02;;;0.68;;
10963;SDS011;5534;48.784;9.190;2024-03-23T02:28:15;0.65;;;0.65;;
10963;SDS011;5534;48.784;9.190;2024-03-23T02:30:42;1.35;;;0.93;;
10963;SDS011;5534;48.784;9.190;2024-03-23T02:33:08;0.98;;;0.85;;
10963;SDS011;5534;48.784;9.190;2024-03-23T02:35:33;1.08;;;0.98;;
10963;SDS011;5534;48.784;9.190;2024-03-23T02:37:59;1.23;;;0.65;;
10963;SDS011;5534;48.784;9.190;2024-03-23T02:40:24;1.42;;;0.93;;
10963;SDS011;5534;48.784;9.190;2024-03-23T02:42:51;1.65;;;0.90;;
10963;SDS011;5534;48.784;9.190;2024-03-23T02:45:17;1.23;;;0.88;;
10963;SDS011;5534;48.784;9.190;2024-03-23T02:47:43;0.60;;;0.60;;
10963;SDS011;5534;48.784;9.190;2024-03-23T02:50:09;0.60;;;0.60;;
10963;SDS011;5534;48.784;9.190;2024-03-23T02:52:34;0.95;;;0.90;;
10963;SDS011;5534;48.784;9.190;2024-03-23T02:55:01;0.85;;;0.85;;
10963;SDS011;5534;48.784;9.190;2024-03-23T02:57:27;1.05;;;0.93;;
10963;SDS011;5534;48.784;9.190;2024-03-23T02:59:53;0.93;;;0.90;;
10963;SDS011;5534;48.784;9.190;2024-03-23T03:02:19;1.15;;;0.98;;
10963;SDS011;5534;48.784;9.190;2024-03-23T03:04:45;0.85;;;0.70;;
10963;SDS011;5534;48.784;9.190;2024-03-23T03:07:11;0.80;;;0.80;;
10963;SDS011;5534;48.784;9.190;2024-03-23T03:09:36;0.80;;;0.80;;
10963;SDS011;5534;48.784;9.190;2024-03-23T03:12:04;0.70;;;0.70;;
10963;SDS011;5534;48.784;9.190;2024-03-23T03:14:32;1.42;;;0.95;;
10963;SDS011;5534;48.784;9.190;2024-03-23T03:17:01;1.20;;;0.85;;
10963;SDS011;5534;48.784;9.190;2024-03-23T03:19:26;0.63;;;0.63;;
10963;SDS011;5534;48.784;9.190;2024-03-23T03:21:52;1.48;;;1.00;;
10963;SDS011;5534;48.784;9.190;2024-03-23T03:24:18;0.80;;;0.80;;
10963;SDS011;5534;48.784;9.190;2024-03-23T03:26:44;1.42;;;1.27;;
10963;SDS011;5534;48.784;9.190;2024-03-23T03:29:09;1.02;;;0.90;;
10963;SDS011;5534;48.784;9.190;2024-03-23T03:31:36;0.50;;;0.50;;
10963;SDS011;5534;48.784;9.190;2024-03-23T03:34:02;1.20;;;1.02;;
10963;SDS011;5534;48.784;9.190;2024-03-23T03:36:28;0.60;;;0.60;;
10963;SDS011;5534;48.784;9.190;2024-03-23T03:38:53;1.08;;;0.57;;
10963;SDS011;5534;48.784;9.190;2024-03-23T03:41:19;0.70;;;0.68;;
10963;SDS011;5534;48.784;9.190;2024-03-23T03:43:45;0.70;;;0.60;;
10963;SDS011;5534;48.784;9.190;2024-03-23T03:46:10;0.60;;;0.60;;
10963;SDS011;5534;48.784;9.190;2024-03-23T03:48:36;1.00;;;0.70;;
10963;SDS011;5534;48.784;9.190;2024-03-23T03:51:02;1.05;;;0.77;;
10963;SDS011;5534;48.784;9.190;2024-03-23T03:53:28;0.70;;;0.70;;
10963;SDS011;5534;48.784;9.190;2024-03-23T03:55:54;1.23;;;0.98;;
10963;SDS011;5534;48.784;9.190;2024-03-23T03:58:19;1.05;;;0.68;;
10963;SDS011;5534;48.784;9.190;2024-03-23T04:00:45;0.75;;;0.60;;
10963;SDS011;5534;48.784;9.190;2024-03-23T04:03:11;0.73;;;0.60;;
10963;SDS011;5534;48.784;9.190;2024-03-23T04:05:36;0.82;;;0.70;;
10963;SDS011;5534;48.784;9.190;2024-03-23T04:08:02;0.60;;;0.60;;
10963;SDS011;5534;48.784;9.190;2024-03-23T04:10:29;0.98;;;0.82;;
10963;SDS011;5534;48.784;9.190;2024-03-23T04:12:55;2.10;;;1.08;;
10963;SDS011;5534;48.784;9.190;2024-03-23T04:15:20;0.95;;;0.82;;
10963;SDS011;5534;48.784;9.190;2024-03-23T04:17:46;1.15;;;0.82;;
10963;SDS011;5534;48.784;9.190;2024-03-23T04:20:12;0.73;;;0.60;;
10963;SDS011;5534;48.784;9.190;2024-03-23T04:22:41;1.02;;;0.80;;
10963;SDS011;5534;48.784;9.190;2024-03-23T04:25:07;0.88;;;0.82;;
10963;SDS011;5534;48.784;9.190;2024-03-23T04:27:33;0.80;;;0.70;;
10963;SDS011;5534;48.784;9.190;2024-03-23T04:29:59;0.63;;;0.52;;
10963;SDS011;5534;48.784;9.190;2024-03-23T04:32:29;0.95;;;0.70;;
10963;SDS011;5534;48.784;9.190;2024-03-23T04:34:54;1.10;;;0.70;;
10963;SDS011;5534;48.784;9.190;2024-03-23T04:37:21;0.75;;;0.75;;
10963;SDS011;5534;48.784;9.190;2024-03-23T04:39:47;1.02;;;0.90;;
10963;SDS011;5534;48.784;9.190;2024-03-23T04:42:14;0.40;;;0.40;;
10963;SDS011;5534;48.784;9.190;2024-03-23T04:44:40;0.90;;;0.80;;
10963;SDS011;5534;48.784;9.190;2024-03-23T04:47:06;0.73;;;0.73;;
10963;SDS011;5534;48.784;9.190;2024-03-23T04:49:32;0.85;;;0.70;;
10963;SDS011;5534;48.784;9.190;2024-03-23T04:51:57;1.00;;;0.88;;
10963;SDS011;5534;48.784;9.190;2024-03-23T04:54:23;1.00;;;0.80;;
10963;SDS011;5534;48.784;9.190;2024-03-23T04:56:49;2.45;;;0.75;;
10963;SDS011;5534;48.784;9.190;2024-03-23T04:59:15;1.17;;;1.10;;
10963;SDS011;5534;48.784;9.190;2024-03-23T05:01:40;1.27;;;1.17;;
10963;SDS011;5534;48.784;9.190;2024-03-23T05:04:07;0.95;;;0.90;;
10963;SDS011;5534;48.784;9.190;2024-03-23T05:06:33;2.20;;;1.10;;
10963;SDS011;5534;48.784;9.190;2024-03-23T05:08:59;1.67;;;1.40;;
10963;SDS011;5534;48.784;9.190;2024-03-23T05:11:31;1.90;;;1.40;;
10963;SDS011;5534;48.784;9.190;2024-03-23T05:13:56;2.00;;;1.33;;
10963;SDS011;5534;48.784;9.190;2024-03-23T05:16:22;2.15;;;1.60;;
10963;SDS011;5534;48.784;9.190;2024-03-23T05:18:48;1.70;;;1.55;;
10963;SDS011;5534;48.784;9.190;2024-03-23T05:21:13;3.13;;;2.08;;
10963;SDS011;5534;48.784;9.190;2024-03-23T05:23:39;1.70;;;1.60;;
10963;SDS011;5534;48.784;9.190;2024-03-23T05:26:04;1.92;;;1.70;;
10963;SDS011;5534;48.784;9.190;2024-03-23T05:28:30;4.30;;;2.25;;
10963;SDS011;5534;48.784;9.190;2024-03-23T05:30:56;2.88;;;2.33;;
10963;SDS011;5534;48.784;9.190;2024-03-23T05:33:24;2.47;;;2.10;;
10963;SDS011;5534;48.784;9.190;2024-03-23T05:36:00;3.63;;;2.72;;
10963;SDS011;5534;48.784;9.190;2024-03-23T05:38:26;2.03;;;1.75;;
10963;SDS011;5534;48.784;9.190;2024-03-23T05:40:56;3.30;;;2.25;;
10963;SDS011;5534;48.784;9.190;2024-03-23T05:43:23;3.85;;;2.50;;
10963;SDS011;5534;48.784;9.190;2024-03-23T05:45:59;3.85;;;3.08;;
10963;SDS011;5534;48.784;9.190;2024-03-23T05:48:26;3.35;;;2.53;;
10963;SDS011;5534;48.784;9.190;2024-03-23T05:50:52;3.33;;;2.47;;
10963;SDS011;5534;48.784;9.190;2024-03-23T05:53:18;3.88;;;2.70;;
10963;SDS011;5534;48.784;9.190;2024-03-23T05:55:47;3.08;;;2.28;;
10963;SDS011;5534;48.784;9.190;2024-03-23T05:58:14;2.67;;;2.15;;
10963;SDS011;5534;48.784;9.190;2024-03-23T06:00:40;1.90;;;1.70;;
10963;SDS011;5534;48.784;9.190;2024-03-23T06:03:07;1.95;;;1.55;;
10963;SDS011;5534;48.784;9.190;2024-03-23T06:05:33;2.25;;;1.75;;
10963;SDS011;5534;48.784;9.190;2024-03-23T06:07:58;1.60;;;1.20;;
10963;SDS011;5534;48.784;9.190;2024-03-23T06:10:24;1.45;;;1.20;;
10963;SDS011;5534;48.784;9.190;2024-03-23T06:12:50;1.13;;;1.02;;
10963;SDS011;5534;48.784;9.190;2024-03-23T06:15:17;1.65;;;0.93;;
10963;SDS011;5534;48.784;9.190;2024-03-23T06:17:43;1.65;;;1.10;;
10963;SDS011;5534;48.784;9.190;2024-03-23T06:20:09;1.38;;;1.27;;
10963;SDS011;5534;48.784;9.190;2024-03-23T06:22:36;1.13;;;1.00;;
10963;SDS011;5534;48.784;9.190;2024-03-23T06:25:02;1.17;;;0.75;;
10963;SDS011;5534;48.784;9.190;2024-03-23T06:27:31;0.70;;;0.70;;
10963;SDS011;5534;48.784;9.190;2024-03-23T06:30:00;0.80;;;0.60;;
10963;SDS011;5534;48.784;9.190;2024-03-23T06:32:27;1.20;;;0.70;;
10963;SDS011;5534;48.784;9.190;2024-03-23T06:34:54;0.82;;;0.80;;
10963;SDS011;5534;48.784;9.190;2024-03-23T06:37:20;0.43;;;0.43;;
10963;SDS011;5534;48.784;9.190;2024-03-23T06:39:45;0.85;;;0.40;;
10963;SDS011;5534;48.784;9.190;2024-03-23T06:42:11;0.57;;;0.55;;
10963;SDS011;5534;48.784;9.190;2024-03-23T06:44:37;1.95;;;0.63;;
10963;SDS011;5534;48.784;9.190;2024-03-23T06:47:04;0.30;;;0.30;;
10963;SDS011;5534;48.784;9.190;2024-03-23T06:49:30;0.85;;;0.65;;
10963;SDS011;5534;48.784;9.190;2024-03-23T06:51:55;0.35;;;0.35;;
10963;SDS011;5534;48.784;9.190;2024-03-23T06:54:21;0.30;;;0.30;;
10963;SDS011;5534;48.784;9.190;2024-03-23T06:56:50;0.45;;;0.30;;
10963;SDS011;5534;48.784;9.190;2024-03-23T06:59:16;0.30;;;0.30;;
10963;SDS011;5534;48.784;9.190;2024-03-23T07:01:41;0.28;;;0.28;;
10963;SDS011;5534;48.784;9.190;2024-03-23T07:04:07;0.90;;;0.30;;
10963;SDS011;5534;48.784;9.190;2024-03-23T07:06:33;0.20;;;0.20;;
10963;SDS011;5534;48.784;9.190;2024-03-23T07:08:58;0.28;;;0.28;;
10963;SDS011;5534;48.784;9.190;2024-03-23T07:11:24;0.38;;;0.38;;
10963;SDS011;5534;48.784;9.190;2024-03-23T07:13:50;0.30;;;0.30;;
10963;SDS011;5534;48.784;9.190;2024-03-23T07:16:16;0.32;;;0.32;;
10963;SDS011;5534;48.784;9.190;2024-03-23T07:18:42;0.20;;;0.20;;
10963;SDS011;5534;48.784;9.190;2024-03-23T07:21:08;0.20;;;0.20;;
10963;SDS011;5534;48.784;9.190;2024-03-23T07:23:34;0.20;;;0.20;;
10963;SDS011;5534;48.784;9.190;2024-03-23T07:26:00;0.20;;;0.20;;
10963;SDS011;5534;48.784;9.190;2024-03-23T07:28:27;0.30;;;0.30;;
10963;SDS011;5534;48.784;9.190;2024-03-23T07:31:06;0.20;;;0.20;;
10963;SDS011;5534;48.784;9.190;2024-03-23T07:33:42;0.10;;;0.10;;
10963;SDS011;5534;48.784;9.190;2024-03-23T07:36:09;0.20;;;0.20;;
10963;SDS011;5534;48.784;9.190;2024-03-23T07:38:35;0.30;;;0.30;;
10963;SDS011;5534;48.784;9.190;2024-03-23T07:41:04;0.20;;;0.20;;
10963;SDS011;5534;48.784;9.190;2024-03-23T07:43:31;0.22;;;0.22;;
10963;SDS011;5534;48.784;9.190;2024-03-23T07:45:56;0.30;;;0.30;;
10963;SDS011;5534;48.784;9.190;2024-03-23T07:48:22;0.20;;;0.20;;
10963;SDS011;5534;48.784;9.190;2024-03-23T07:51:03;0.20;;;0.20;;
10963;SDS011;5534;48.784;9.190;2024-03-23T07:53:31;0.20;;;0.20;;
10963;SDS011;5534;48.784;9.190;2024-03-23T07:56:01;0.10;;;0.10;;
10963;SDS011;5534;48.784;9.190;2024-03-23T07:58:32;0.20;;;0.20;;
10963;SDS011;5534;48.784;9.190;2024-03-23T08:01:04;0.30;;;0.30;;
10963;SDS011;5534;48.784;9.190;2024-03-23T08:03:34;0.20;;;0.20;;
10963;SDS011;5534;48.784;9.190;2024-03-23T08:06:16;0.20;;;0.20;;
10963;SDS011;5534;48.784;9.190;2024-03-23T08:08:45;0.30;;;0.30;;
10963;SDS011;5534;48.784;9.190;2024-03-23T08:11:11;0.20;;;0.20;;
10963;SDS011;5534;48.784;9.190;2024-03-23T08:13:38;0.25;;;0.25;;
10963;SDS011;5534;48.784;9.190;2024-03-23T08:16:05;0.38;;;0.38;;
10963;SDS011;5534;48.784;9.190;2024-03-23T08:18:31;0.35;;;0.30;;
10963;SDS011;5534;48.784;9.190;2024-03-23T08:21:01;0.40;;;0.40;;
10963;SDS011;5534;48.784;9.190;2024-03-23T08:23:27;0.40;;;0.40;;
10963;SDS011;5534;48.784;9.190;2024-03-23T08:25:58;0.30;;;0.30;;
10963;SDS011;5534;48.784;9.190;2024-03-23T08:28:27;0.30;;;0.30;;
10963;SDS011;5534;48.784;9.190;2024-03-23T08:30:55;0.20;;;0.20;;
10963;SDS011;5534;48.784;9.190;2024-03-23T08:33:22;0.65;;;0.40;;
10963;SDS011;5534;48.784;9.190;2024-03-23T08:35:54;0.20;;;0.20;;
10963;SDS011;5534;48.784;9.190;2024-03-23T08:38:23;0.20;;;0.20;;
10963;SDS011;5534;48.784;9.190;2024-03-23T08:40:59;0.40;;;0.40;;
10963;SDS011;5534;48.784;9.190;2024-03-23T08:43:29;0.40;;;0.40;;
10963;SDS011;5534;48.784;9.190;2024-03-23T08:46:05;0.40;;;0.40;;
10963;SDS011;5534;48.784;9.190;2024-03-23T08:48:35;0.30;;;0.30;;
10963;SDS011;5534;48.784;9.190;2024-03-23T08:51:12;0.30;;;0.30;;
10963;SDS011;5534;48.784;9.190;2024-03-23T08:53:39;0.40;;;0.40;;
10963;SDS011;5534;48.784;9.190;2024-03-23T08:56:05;0.40;;;0.40;;
10963;SDS011;5534;48.784;9.190;2024-03-23T08:58:32;0.82;;;0.30;;
10963;SDS011;5534;48.784;9.190;2024-03-23T09:01:06;0.30;;;0.30;;
10963;SDS011;5534;48.784;9.190;2024-03-23T09:03:36;0.40;;;0.40;;
10963;SDS011;5534;48.784;9.190;2024-03-23T09:06:06;0.30;;;0.30;;
10963;SDS011;5534;48.784;9.190;2024-03-23T09:08:36;0.35;;;0.35;;
10963;SDS011;5534;48.784;9.190;2024-03-23T09:11:05;0.40;;;0.40;;
10963;SDS011;5534;48.784;9.190;2024-03-23T09:13:35;0.40;;;0.40;;
10963;SDS011;5534;48.784;9.190;2024-03-23T09:16:01;0.50;;;0.40;;
10963;SDS011;5534;48.784;9.190;2024-03-23T09:18:28;1.42;;;0.70;;
10963;SDS011;5534;48.784;9.190;2024-03-23T09:20:56;2.20;;;0.97;;
10963;SDS011;5534;48.784;9.190;2024-03-23T09:23:22;1.13;;;0.50;;
10963;SDS011;5534;48.784;9.190;2024-03-23T09:25:47;0.32;;;0.32;;
10963;SDS011;5534;48.784;9.190;2024-03-23T09:28:13;0.83;;;0.83;;
10963;SDS011;5534;48.784;9.190;2024-03-23T09:30:39;0.30;;;0.30;;
10963;SDS011;5534;48.784;9.190;2024-03-23T09:33:10;1.25;;;0.60;;
10963;SDS011;5534;48.784;9.190;2024-03-23T09:35:40;0.52;;;0.50;;
10963;SDS011;5534;48.784;9.190;2024-03-23T09:38:10;1.60;;;1.00;;
10963;SDS011;5534;48.784;9.190;2024-03-23T09:40:42;0.75;;;0.57;;
10963;SDS011;5534;48.784;9.190;2024-03-23T09:43:08;0.60;;;0.60;;
10963;SDS011;5534;48.784;9.190;2024-03-23T09:45:36;0.68;;;0.52;;
10963;SDS011;5534;48.784;9.190;2024-03-23T09:48:04;1.20;;;0.75;;
10963;SDS011;5534;48.784;9.190;2024-03-23T09:50:31;1.13;;;0.63;;
10963;SDS011;5534;48.784;9.190;2024-03-23T09:52:57;0.35;;;0.35;;
10963;SDS011;5534;48.784;9.190;2024-03-23T09:55:23;1.02;;;0.75;;
10963;SDS011;5534;48.784;9.190;2024-03-23T09:57:49;1.13;;;0.80;;
10963;SDS011;5534;48.784;9.190;2024-03-23T10:00:18;0.50;;;0.50;;
10963;SDS011;5534;48.784;9.190;2024-03-23T10:02:45;1.08;;;0.65;;
10963;SDS011;5534;48.784;9.190;2024-03-23T10:05:23;1.85;;;0.93;;
10963;SDS011;5534;48.784;9.190;2024-03-23T10:07:52;0.63;;;0.63;;
10963;SDS011;5534;48.784;9.190;2024-03-23T10:10:18;1.17;;;0.73;;
10963;SDS011;5534;48.784;9.190;2024-03-23T10:12:48;1.33;;;0.60;;
10963;SDS011;5534;48.784;9.190;2024-03-23T10:15:18;0.77;;;0.77;;
10963;SDS011;5534;48.784;9.190;2024-03-23T10:17:50;0.88;;;0.88;;
10963;SDS011;5534;48.784;9.190;2024-03-23T10:20:23;0.75;;;0.70;;
10963;SDS011;5534;48.784;9.190;2024-03-23T10:22:49;1.42;;;0.80;;
10963;SDS011;5534;48.784;9.190;2024-03-23T10:25:16;1.10;;;1.00;;
10963;SDS011;5534;48.784;9.190;2024-03-23T10:27:42;0.70;;;0.70;;
10963;SDS011;5534;48.784;9.190;2024-03-23T10:32:38;1.67;;;1.08;;
10963;SDS011;5534;48.784;9.190;2024-03-23T10:35:13;1.52;;;1.27;;
10963;SDS011;5534;48.784;9.190;2024-03-23T10:37:40;1.13;;;0.77;;
10963;SDS011;5534;48.784;9.190;2024-03-23T10:40:07;0.60;;;0.60;;
10963;SDS011;5534;48.784;9.190;2024-03-23T10:42:34;1.65;;;0.75;;
10963;SDS011;5534;48.784;9.190;2024-03-23T10:45:01;1.08;;;0.52;;
10963;SDS011;5534;48.784;9.190;2024-03-23T10:47:29;0.68;;;0.68;;
10963;SDS011;5534;48.784;9.190;2024-03-23T10:49:55;1.88;;;0.80;;
10963;SDS011;5534;48.784;9.190;2024-03-23T10:52:21;0.60;;;0.60;;
10963;SDS011;5534;48.784;9.190;2024-03-23T10:54:46;1.08;;;0.82;;
10963;SDS011;5534;48.784;9.190;2024-03-23T10:57:20;0.80;;;0.68;;
10963;SDS011;5534;48.784;9.190;2024-03-23T10:59:54;1.50;;;1.10;;
10963;SDS011;5534;48.784;9.190;2024-03-23T11:02:21;0.70;;;0.70;;
10963;SDS011;5534;48.784;9.190;2024-03-23T11:04:47;0.60;;;0.60;;
10963;SDS011;5534;48.784;9.190;2024-03-23T11:07:32;0.80;;;0.80;;
10963;SDS011;5534;48.784;9.190;2024-03-23T11:09:58;0.47;;;0.47;;
10963;SDS011;5534;48.784;9.190;2024-03-23T11:12:28;0.50;;;0.50;;
10963;SDS011;5534;48.784;9.190;2024-03-23T11:17:37;0.43;;;0.40;;
10963;SDS011;5534;48.784;9.190;2024-03-23T11:20:04;0.50;;;0.50;;
10963;SDS011;5534;48.784;9.190;2024-03-23T11:22:43;0.40;;;0.40;;
10963;SDS011;5534;48.784;9.190;2024-03-23T11:25:29;0.70;;;0.70;;
10963;SDS011;5534;48.784;9.190;2024-03-23T11:27:55;0.73;;;0.73;;
10963;SDS011;5534;48.784;9.190;2024-03-23T11:30:25;0.40;;;0.40;;
10963;SDS011;5534;48.784;9.190;2024-03-23T11:32:54;0.60;;;0.60;;
10963;SDS011;5534;48.784;9.190;2024-03-23T11:35:30;0.40;;;0.40;;
10963;SDS011;5534;48.784;9.190;2024-03-23T11:40:32;0.50;;;0.50;;
10963;SDS011;5534;48.784;9.190;2024-03-23T11:43:00;0.80;;;0.80;;
10963;SDS011;5534;48.784;9.190;2024-03-23T11:45:33;0.87;;;0.70;;
10963;SDS011;5534;48.784;9.190;2024-03-23T11:50:32;1.38;;;0.50;;
10963;SDS011;5534;48.784;9.190;2024-03-23T11:53:15;0.50;;;0.50;;
10963;SDS011;5534;48.784;9.190;2024-03-23T11:58:12;1.57;;;1.00;;
10963;SDS011;5534;48.784;9.190;2024-03-23T12:00:39;0.33;;;0.33;;
10963;SDS011;5534;48.784;9.190;2024-03-23T12:03:05;1.57;;;0.60;;
10963;SDS011;5534;48.784;9.190;2024-03-23T12:05:32;0.47;;;0.40;;
10963;SDS011;5534;48.784;9.190;2024-03-23T12:08:17;1.50;;;0.80;;
10963;SDS011;5534;48.784;9.190;2024-03-23T12:11:11;1.73;;;0.85;;
10963;SDS011;5534;48.784;9.190;2024-03-23T12:13:38;4.82;;;0.60;;
10963;SDS011;5534;48.784;9.190;2024-03-23T12:16:13;0.22;;;0.22;;
10963;SDS011;5534;48.784;9.190;2024-03-23T12:18:42;0.43;;;0.30;;
10963;SDS011;5534;48.784;9.190;2024-03-23T12:21:08;0.85;;;0.22;;
10963;SDS011;5534;48.784;9.190;2024-03-23T12:23:35;2.08;;;0.82;;
10963;SDS011;5534;48.784;9.190;2024-03-23T12:26:01;0.40;;;0.30;;
10963;SDS011;5534;48.784;9.190;2024-03-23T12:28:27;1.60;;;0.82;;
10963;SDS011;5534;48.784;9.190;2024-03-23T12:30:53;0.60;;;0.52;;
10963;SDS011;5534;48.784;9.190;2024-03-23T12:33:19;1.90;;;1.03;;
10963;SDS011;5534;48.784;9.190;2024-03-23T12:35:46;1.67;;;0.93;;
10963;SDS011;5534;48.784;9.190;2024-03-23T12:38:12;1.23;;;0.80;;
10963;SDS011;5534;48.784;9.190;2024-03-23T12:40:37;1.38;;;0.40;;
10963;SDS011;5534;48.784;9.190;2024-03-23T12:43:03;0.43;;;0.40;;
10963;SDS011;5534;48.784;9.190;2024-03-23T12:45:29;3.17;;;0.47;;
10963;SDS011;5534;48.784;9.190;2024-03-23T12:47:54;1.42;;;0.90;;
10963;SDS011;5534;48.784;9.190;2024-03-23T12:50:20;1.38;;;0.80;;
10963;SDS011;5534;48.784;9.190;2024-03-23T12:52:46;0.73;;;0.52;;
10963;SDS011;5534;48.784;9.190;2024-03-23T12:55:12;1.13;;;0.50;;
10963;SDS011;5534;48.784;9.190;2024-03-23T12:57:38;0.38;;;0.38;;
10963;SDS011;5534;48.784;9.190;2024-03-23T13:00:05;0.35;;;0.35;;
10963;SDS011;5534;48.784;9.190;2024-03-23T13:02:31;3.22;;;0.57;;
10963;SDS011;5534;48.784;9.190;2024-03-23T13:04:59;0.55;;;0.55;;
10963;SDS011;5534;48.784;9.190;2024-03-23T13:07:25;0.30;;;0.30;;
10963;SDS011;5534;48.784;9.190;2024-03-23T13:09:51;0.98;;;0.60;;
10963;SDS011;5534;48.784;9.190;2024-03-23T13:12:17;1.20;;;0.93;;
10963;SDS011;5534;48.784;9.190;2024-03-23T13:14:46;1.65;;;0.85;;
10963;SDS011;5534;48.784;9.190;2024-03-23T13:17:12;2.63;;;0.73;;
10963;SDS011;5534;48.784;9.190;2024-03-23T13:19:37;1.10;;;0.80;;
10963;SDS011;5534;48.784;9.190;2024-03-23T13:22:03;3.85;;;0.93;;
10963;SDS011;5534;48.784;9.190;2024-03-23T13:24:29;0.75;;;0.75;;
10963;SDS011;5534;48.784;9.190;2024-03-23T13:26:55;0.45;;;0.45;;
10963;SDS011;5534;48.784;9.190;2024-03-23T13:29:22;0.63;;;0.60;;
10963;SDS011;5534;48.784;9.190;2024-03-23T13:31:48;2.88;;;0.93;;
10963;SDS011;5534;48.784;9.190;2024-03-23T13:34:16;0.35;;;0.35;;
10963;SDS011;5534;48.784;9.190;2024-03-23T13:36:42;0.30;;;0.30;;
10963;SDS011;5534;48.784;9.190;2024-03-23T13:39:09;0.35;;;0.35;;
10963;SDS011;5534;48.784;9.190;2024-03-23T13:41:43;2.88;;;0.63;;
10963;SDS011;5534;48.784;9.190;2024-03-23T13:44:16;0.80;;;0.57;;
10963;SDS011;5534;48.784;9.190;2024-03-23T13:46:42;0.55;;;0.52;;
10963;SDS011;5534;48.784;9.190;2024-03-23T13:49:24;3.08;;;0.70;;
10963;SDS011;5534;48.784;9.190;2024-03-23T13:51:56;0.73;;;0.60;;
10963;SDS011;5534;48.784;9.190;2024-03-23T13:54:23;0.80;;;0.70;;
10963;SDS011;5534;48.784;9.190;2024-03-23T13:56:50;0.70;;;0.65;;
10963;SDS011;5534;48.784;9.190;2024-03-23T13:59:16;0.95;;;0.50;;
10963;SDS011;5534;48.784;9.190;2024-03-23T14:01:42;0.70;;;0.60;;
10963;SDS011;5534;48.784;9.190;2024-03-23T14:04:09;0.50;;;0.50;;
10963;SDS011;5534;48.784;9.190;2024-03-23T14:06:35;0.80;;;0.50;;
10963;SDS011;5534;48.784;9.190;2024-03-23T14:09:01;0.50;;;0.50;;
10963;SDS011;5534;48.784;9.190;2024-03-23T14:11:30;0.47;;;0.30;;
10963;SDS011;5534;48.784;9.190;2024-03-23T14:13:58;0.22;;;0.22;;
10963;SDS011;5534;48.784;9.190;2024-03-23T14:16:26;0.53;;;0.53;;
10963;SDS011;5534;48.784;9.190;2024-03-23T14:18:52;1.40;;;1.07;;
10963;SDS011;5534;48.784;9.190;2024-03-23T14:21:18;0.30;;;0.30;;
10963;SDS011;5534;48.784;9.190;2024-03-23T14:23:44;0.67;;;0.43;;
10963;SDS011;5534;48.784;9.190;2024-03-23T14:26:09;0.23;;;0.23;;
10963;SDS011;5534;48.784;9.190;2024-03-23T14:28:37;0.50;;;0.50;;
10963;SDS011;5534;48.784;9.190;2024-03-23T14:31:04;0.20;;;0.20;;
10963;SDS011;5534;48.784;9.190;2024-03-23T14:33:35;0.20;;;0.20;;
10963;SDS011;5534;48.784;9.190;2024-03-23T14:36:06;0.50;;;0.40;;
10963;SDS011;5534;48.784;9.190;2024-03-23T14:38:32;0.20;;;0.20;;
10963;SDS011;5534;48.784;9.190;2024-03-23T14:40:58;0.20;;;0.20;;
10963;SDS011;5534;48.784;9.190;2024-03-23T14:43:25;0.30;;;0.30;;
10963;SDS011;5534;48.784;9.190;2024-03-23T14:48:42;1.07;;;0.47;;
10963;SDS011;5534;48.784;9.190;2024-03-23T14:51:11;0.77;;;0.30;;
10963;SDS011;5534;48.784;9.190;2024-03-23T14:53:41;0.30;;;0.30;;
10963;SDS011;5534;48.784;9.190;2024-03-23T14:56:10;0.77;;;0.30;;
10963;SDS011;5534;48.784;9.190;2024-03-23T14:58:38;0.27;;;0.27;;
10963;SDS011;5534;48.784;9.190;2024-03-23T15:01:05;0.57;;;0.40;;
10963;SDS011;5534;48.784;9.190;2024-03-23T15:03:37;0.30;;;0.30;;
10963;SDS011;5534;48.784;9.190;2024-03-23T15:06:08;0.30;;;0.30;;
10963;SDS011;5534;48.784;9.190;2024-03-23T15:08:36;0.37;;;0.37;;
10963;SDS011;5534;48.784;9.190;2024-03-23T15:11:03;1.27;;;0.43;;
10963;SDS011;5534;48.784;9.190;2024-03-23T15:13:35;0.50;;;0.50;;
10963;SDS011;5534;48.784;9.190;2024-03-23T15:16:02;0.60;;;0.60;;
10963;SDS011;5534;48.784;9.190;2024-03-23T15:18:31;1.40;;;0.63;;
10963;SDS011;5534;48.784;9.190;2024-03-23T15:20:58;1.50;;;0.37;;
10963;SDS011;5534;48.784;9.190;2024-03-23T15:23:28;0.40;;;0.40;;
10963;SDS011;5534;48.784;9.190;2024-03-23T15:25:58;0.33;;;0.30;;
10963;SDS011;5534;48.784;9.190;2024-03-23T15:28:24;0.10;;;0.10;;
10963;SDS011;5534;48.784;9.190;2024-03-23T15:31:06;0.63;;;0.50;;
10963;SDS011;5534;48.784;9.190;2024-03-23T15:33:33;0.23;;;0.23;;
10963;SDS011;5534;48.784;9.190;2024-03-23T15:36:02;0.20;;;0.20;;
10963;SDS011;5534;48.784;9.190;2024-03-23T15:38:28;0.20;;;0.20;;
10963;SDS011;5534;48.784;9.190;2024-03-23T15:40:55;0.40;;;0.40;;
10963;SDS011;5534;48.784;9.190;2024-03-23T15:43:21;0.20;;;0.20;;
10963;SDS011;5534;48.784;9.190;2024-03-23T15:45:56;1.40;;;0.43;;
10963;SDS011;5534;48.784;9.190;2024-03-23T15:48:23;0.37;;;0.30;;
10963;SDS011;5534;48.784;9.190;2024-03-23T15:50:55;0.30;;;0.30;;
10963;SDS011;5534;48.784;9.190;2024-03-23T15:53:29;0.25;;;0.25;;
10963;SDS011;5534;48.784;9.190;2024-03-23T15:55:55;0.88;;;0.43;;
10963;SDS011;5534;48.784;9.190;2024-03-23T15:58:24;0.37;;;0.37;;
10963;SDS011;5534;48.784;9.190;2024-03-23T16:00:56;0.43;;;0.30;;
10963;SDS011;5534;48.784;9.190;2024-03-23T16:03:23;0.20;;;0.20;;
10963;SDS011;5534;48.784;9.190;2024-03-23T16:05:55;0.43;;;0.43;;
10963;SDS011;5534;48.784;9.190;2024-03-23T16:08:22;0.40;;;0.37;;
10963;SDS011;5534;48.784;9.190;2024-03-23T16:10:48;0.20;;;0.20;;
10963;SDS011;5534;48.784;9.190;2024-03-23T16:13:15;0.53;;;0.33;;